sensor_id;sensor_type;location;lat;lon;timestamp;temperature;humidity
15922;DHT22;8060;50.948;3.146;2023-10-08T06:28:46;14.80;99.90
15922;DHT22;8060;50.948;3.146;2023-10-08T06:31:15;14.80;99.90
15922;DHT22;8060;50.948;3.146;2023-10-08T06:33:44;14.80;99.90
15922;DHT22;8060;50.948;3.146;2023-10-08T06:36:12;14.90;99.90
15922;DHT22;8060;50.948;3.146;2023-10-08T06:38:44;14.90;99.90
15922;DHT22;8060;50.948;3.146;2023-10-08T06:41:16;14.90;99.90
15922;DHT22;8060;50.948;3.146;2023-10-08T06:44:07;14.90;99.90
15922;DHT22;8060;50.948;3.146;2023-10-08T06:46:42;14.90;99.90
15922;DHT22;8060;50.948;3.146;2023-10-08T06:49:11;14.90;99.90
15922;DHT22;8060;50.948;3.146;2023-10-08T06:51:41;15.00;99.90
15922;DHT22;8060;50.948;3.146;2023-10-08T06:54:11;15.00;99.90
15922;DHT22;8060;50.948;3.146;2023-10-08T06:56:41;15.00;99.90
15922;DHT22;8060;50.948;3.146;2023-10-08T06:59:15;15.10;99.90
15922;DHT22;8060;50.948;3.146;2023-10-08T07:01:44;15.10;99.90
15922;DHT22;8060;50.948;3.146;2023-10-08T07:04:14;15.20;99.90
15922;DHT22;8060;50.948;3.146;2023-10-08T07:06:42;15.20;99.90
15922;DHT22;8060;50.948;3.146;2023-10-08T07:09:14;15.30;99.90
15922;DHT22;8060;50.948;3.146;2023-10-08T07:11:56;15.30;99.90
15922;DHT22;8060;50.948;3.146;2023-10-08T07:14:27;15.40;99.90
15922;DHT22;8060;50.948;3.146;2023-10-08T07:16:58;15.50;99.90
15922;DHT22;8060;50.948;3.146;2023-10-08T07:19:29;15.60;99.90
15922;DHT22;8060;50.948;3.146;2023-10-08T07:22:04;15.60;99.90
15922;DHT22;8060;50.948;3.146;2023-10-08T07:24:45;15.70;99.90
15922;DHT22;8060;50.948;3.146;2023-10-08T07:27:18;15.80;99.90
15922;DHT22;8060;50.948;3.146;2023-10-08T07:29:50;15.80;99.90
15922;DHT22;8060;50.948;3.146;2023-10-08T07:32:24;15.90;99.90
15922;DHT22;8060;50.948;3.146;2023-10-08T07:34:53;16.00;99.90
15922;DHT22;8060;50.948;3.146;2023-10-08T07:37:29;16.00;99.90
15922;DHT22;8060;50.948;3.146;2023-10-08T07:39:59;16.00;99.90
15922;DHT22;8060;50.948;3.146;2023-10-08T07:42:35;16.00;99.90
15922;DHT22;8060;50.948;3.146;2023-10-08T07:45:06;16.20;99.90
15922;DHT22;8060;50.948;3.146;2023-10-08T07:47:34;16.20;99.90
15922;DHT22;8060;50.948;3.146;2023-10-08T07:50:02;16.30;99.90
15922;DHT22;8060;50.948;3.146;2023-10-08T07:52:39;16.50;99.90
15922;DHT22;8060;50.948;3.146;2023-10-08T07:55:11;16.60;99.90
15922;DHT22;8060;50.948;3.146;2023-10-08T07:57:45;16.70;99.90
15922;DHT22;8060;50.948;3.146;2023-10-08T08:00:15;16.80;99.90
15922;DHT22;8060;50.948;3.146;2023-10-08T08:02:50;17.00;99.90
15922;DHT22;8060;50.948;3.146;2023-10-08T08:05:19;17.00;99.90
15922;DHT22;8060;50.948;3.146;2023-10-08T08:07:48;17.20;99.90
15922;DHT22;8060;50.948;3.146;2023-10-08T08:10:17;17.30;99.90
15922;DHT22;8060;50.948;3.146;2023-10-08T08:12:46;17.40;99.90
15922;DHT22;8060;50.948;3.146;2023-10-08T08:15:19;17.50;99.90
15922;DHT22;8060;50.948;3.146;2023-10-08T08:17:49;17.50;99.90
15922;DHT22;8060;50.948;3.146;2023-10-08T08:20:18;17.60;99.90
15922;DHT22;8060;50.948;3.146;2023-10-08T08:22:49;17.80;99.90
15922;DHT22;8060;50.948;3.146;2023-10-08T08:25:21;17.90;99.90
15922;DHT22;8060;50.948;3.146;2023-10-08T08:28:01;18.00;99.90
15922;DHT22;8060;50.948;3.146;2023-10-08T08:30:34;18.10;99.90
15922;DHT22;8060;50.948;3.146;2023-10-08T08:33:06;18.30;99.90
15922;DHT22;8060;50.948;3.146;2023-10-08T08:35:38;18.40;99.90
15922;DHT22;8060;50.948;3.146;2023-10-08T08:38:06;18.60;99.90
15922;DHT22;8060;50.948;3.146;2023-10-08T08:40:36;18.70;99.90
15922;DHT22;8060;50.948;3.146;2023-10-08T08:43:05;18.80;99.90
15922;DHT22;8060;50.948;3.146;2023-10-08T08:45:35;18.90;99.90
15922;DHT22;8060;50.948;3.146;2023-10-08T08:48:07;19.10;99.90
15922;DHT22;8060;50.948;3.146;2023-10-08T08:50:37;19.00;99.90
15922;DHT22;8060;50.948;3.146;2023-10-08T08:53:06;19.10;99.90
15922;DHT22;8060;50.948;3.146;2023-10-08T08:55:34;19.20;99.90
15922;DHT22;8060;50.948;3.146;2023-10-08T08:58:03;19.30;99.90
15922;DHT22;8060;50.948;3.146;2023-10-08T09:00:40;19.40;99.90
15922;DHT22;8060;50.948;3.146;2023-10-08T09:03:08;19.50;99.90
15922;DHT22;8060;50.948;3.146;2023-10-08T09:05:40;19.60;99.90
15922;DHT22;8060;50.948;3.146;2023-10-08T09:08:09;19.70;99.90
15922;DHT22;8060;50.948;3.146;2023-10-08T09:10:38;20.00;99.90
15922;DHT22;8060;50.948;3.146;2023-10-08T09:13:20;20.20;99.90
15922;DHT22;8060;50.948;3.146;2023-10-08T09:15:51;20.60;99.90
15922;DHT22;8060;50.948;3.146;2023-10-08T09:18:23;20.70;99.90
15922;DHT22;8060;50.948;3.146;2023-10-08T09:20:54;20.80;99.90
15922;DHT22;8060;50.948;3.146;2023-10-08T09:23:24;20.80;99.90
15922;DHT22;8060;50.948;3.146;2023-10-08T09:25:52;21.00;99.90
15922;DHT22;8060;50.948;3.146;2023-10-08T09:28:31;20.90;99.90
15922;DHT22;8060;50.948;3.146;2023-10-08T09:31:03;21.00;99.90
15922;DHT22;8060;50.948;3.146;2023-10-08T09:33:32;21.00;99.90
15922;DHT22;8060;50.948;3.146;2023-10-08T09:36:01;21.00;99.90
15922;DHT22;8060;50.948;3.146;2023-10-08T09:38:33;21.10;99.90
15922;DHT22;8060;50.948;3.146;2023-10-08T09:41:01;21.20;99.90
15922;DHT22;8060;50.948;3.146;2023-10-08T09:43:30;21.40;99.90
15922;DHT22;8060;50.948;3.146;2023-10-08T09:46:08;21.70;99.90
15922;DHT22;8060;50.948;3.146;2023-10-08T09:48:37;22.20;99.90
15922;DHT22;8060;50.948;3.146;2023-10-08T09:51:09;22.50;99.90
15922;DHT22;8060;50.948;3.146;2023-10-08T09:53:46;22.90;99.90
15922;DHT22;8060;50.948;3.146;2023-10-08T09:56:16;23.20;99.90
15922;DHT22;8060;50.948;3.146;2023-10-08T09:58:45;23.50;99.90
15922;DHT22;8060;50.948;3.146;2023-10-08T10:01:19;23.90;99.90
15922;DHT22;8060;50.948;3.146;2023-10-08T10:03:49;24.10;99.90
15922;DHT22;8060;50.948;3.146;2023-10-08T10:06:20;24.30;99.90
15922;DHT22;8060;50.948;3.146;2023-10-08T10:08:49;24.30;99.90
15922;DHT22;8060;50.948;3.146;2023-10-08T10:11:17;24.40;99.90
15922;DHT22;8060;50.948;3.146;2023-10-08T10:13:49;24.60;99.90
15922;DHT22;8060;50.948;3.146;2023-10-08T10:16:21;24.70;99.90
15922;DHT22;8060;50.948;3.146;2023-10-08T10:18:50;25.00;99.90
15922;DHT22;8060;50.948;3.146;2023-10-08T10:21:26;25.40;99.90
15922;DHT22;8060;50.948;3.146;2023-10-08T10:23:55;25.60;99.90
15922;DHT22;8060;50.948;3.146;2023-10-08T10:26:26;25.90;99.90
15922;DHT22;8060;50.948;3.146;2023-10-08T10:29:22;26.10;99.90
15922;DHT22;8060;50.948;3.146;2023-10-08T10:31:55;26.00;99.90
15922;DHT22;8060;50.948;3.146;2023-10-08T10:34:25;25.80;99.90
15922;DHT22;8060;50.948;3.146;2023-10-08T10:36:55;26.20;99.90
15922;DHT22;8060;50.948;3.146;2023-10-08T10:39:26;26.30;99.90
15922;DHT22;8060;50.948;3.146;2023-10-08T10:41:56;26.50;99.90
15922;DHT22;8060;50.948;3.146;2023-10-08T10:44:28;26.80;99.90
15922;DHT22;8060;50.948;3.146;2023-10-08T10:47:00;27.10;99.90
15922;DHT22;8060;50.948;3.146;2023-10-08T10:49:52;27.10;99.90
15922;DHT22;8060;50.948;3.146;2023-10-08T10:52:22;27.20;99.90
15922;DHT22;8060;50.948;3.146;2023-10-08T10:55:01;27.10;99.90
15922;DHT22;8060;50.948;3.146;2023-10-08T10:57:47;27.40;99.90
15922;DHT22;8060;50.948;3.146;2023-10-08T11:00:23;27.70;99.90
15922;DHT22;8060;50.948;3.146;2023-10-08T11:03:10;27.90;99.90
15922;DHT22;8060;50.948;3.146;2023-10-08T11:05:47;27.80;99.90
15922;DHT22;8060;50.948;3.146;2023-10-08T11:08:19;27.90;99.90
15922;DHT22;8060;50.948;3.146;2023-10-08T11:10:51;28.10;99.90
15922;DHT22;8060;50.948;3.146;2023-10-08T11:13:20;28.30;99.90
15922;DHT22;8060;50.948;3.146;2023-10-08T11:15:51;28.60;99.90
15922;DHT22;8060;50.948;3.146;2023-10-08T11:18:22;28.70;99.90
15922;DHT22;8060;50.948;3.146;2023-10-08T11:20:51;28.60;99.90
15922;DHT22;8060;50.948;3.146;2023-10-08T11:23:31;28.90;99.90
15922;DHT22;8060;50.948;3.146;2023-10-08T11:26:01;29.10;99.90
15922;DHT22;8060;50.948;3.146;2023-10-08T11:28:31;29.30;99.90
15922;DHT22;8060;50.948;3.146;2023-10-08T11:31:01;29.30;99.90
15922;DHT22;8060;50.948;3.146;2023-10-08T11:33:37;29.20;99.90
15922;DHT22;8060;50.948;3.146;2023-10-08T11:36:07;29.40;99.90
15922;DHT22;8060;50.948;3.146;2023-10-08T11:38:45;29.30;99.90
15922;DHT22;8060;50.948;3.146;2023-10-08T11:41:18;29.40;99.90
15922;DHT22;8060;50.948;3.146;2023-10-08T11:43:49;29.60;99.90
15922;DHT22;8060;50.948;3.146;2023-10-08T11:46:26;29.70;99.90
15922;DHT22;8060;50.948;3.146;2023-10-08T11:49:01;29.50;99.90
15922;DHT22;8060;50.948;3.146;2023-10-08T11:51:32;29.00;99.90
15922;DHT22;8060;50.948;3.146;2023-10-08T11:54:01;28.90;99.90
15922;DHT22;8060;50.948;3.146;2023-10-08T11:56:31;28.70;99.90
15922;DHT22;8060;50.948;3.146;2023-10-08T11:59:01;28.60;99.90
15922;DHT22;8060;50.948;3.146;2023-10-08T12:01:35;28.90;99.90
15922;DHT22;8060;50.948;3.146;2023-10-08T12:04:06;29.20;99.90
15922;DHT22;8060;50.948;3.146;2023-10-08T12:06:40;29.50;99.90
15922;DHT22;8060;50.948;3.146;2023-10-08T12:09:13;29.80;99.90
15922;DHT22;8060;50.948;3.146;2023-10-08T12:11:42;29.80;99.90
15922;DHT22;8060;50.948;3.146;2023-10-08T12:14:11;30.00;99.90
15922;DHT22;8060;50.948;3.146;2023-10-08T12:16:39;30.40;99.90
15922;DHT22;8060;50.948;3.146;2023-10-08T12:19:10;30.70;99.90
15922;DHT22;8060;50.948;3.146;2023-10-08T12:21:44;31.10;99.90
15922;DHT22;8060;50.948;3.146;2023-10-08T12:24:13;31.20;99.90
15922;DHT22;8060;50.948;3.146;2023-10-08T12:26:42;31.10;99.90
15922;DHT22;8060;50.948;3.146;2023-10-08T12:29:13;31.00;99.90
15922;DHT22;8060;50.948;3.146;2023-10-08T12:31:41;31.20;99.90
15922;DHT22;8060;50.948;3.146;2023-10-08T12:34:16;31.20;99.90
15922;DHT22;8060;50.948;3.146;2023-10-08T12:36:44;31.00;99.90
15922;DHT22;8060;50.948;3.146;2023-10-08T12:39:13;31.10;99.90
15922;DHT22;8060;50.948;3.146;2023-10-08T12:41:43;31.50;99.90
15922;DHT22;8060;50.948;3.146;2023-10-08T12:44:11;31.90;99.90
15922;DHT22;8060;50.948;3.146;2023-10-08T12:46:43;32.20;99.90
15922;DHT22;8060;50.948;3.146;2023-10-08T12:49:17;31.90;99.90
15922;DHT22;8060;50.948;3.146;2023-10-08T12:51:48;31.90;99.90
15922;DHT22;8060;50.948;3.146;2023-10-08T12:54:16;31.80;99.90
15922;DHT22;8060;50.948;3.146;2023-10-08T12:56:49;31.60;99.90
15922;DHT22;8060;50.948;3.146;2023-10-08T12:59:21;32.00;99.90
15922;DHT22;8060;50.948;3.146;2023-10-08T13:01:51;32.50;99.90
15922;DHT22;8060;50.948;3.146;2023-10-08T13:04:23;32.50;99.90
15922;DHT22;8060;50.948;3.146;2023-10-08T13:06:57;32.50;99.90
15922;DHT22;8060;50.948;3.146;2023-10-08T13:09:28;32.50;99.90
15922;DHT22;8060;50.948;3.146;2023-10-08T13:11:58;32.10;99.90
15922;DHT22;8060;50.948;3.146;2023-10-08T13:14:27;32.40;99.90
15922;DHT22;8060;50.948;3.146;2023-10-08T13:16:55;32.30;99.90
15922;DHT22;8060;50.948;3.146;2023-10-08T13:19:25;32.30;99.90
15922;DHT22;8060;50.948;3.146;2023-10-08T13:21:53;32.60;99.90
15922;DHT22;8060;50.948;3.146;2023-10-08T13:24:21;33.00;99.90
15922;DHT22;8060;50.948;3.146;2023-10-08T13:26:51;33.40;99.90
15922;DHT22;8060;50.948;3.146;2023-10-08T13:29:19;33.60;99.90
15922;DHT22;8060;50.948;3.146;2023-10-08T13:31:48;33.60;99.90
15922;DHT22;8060;50.948;3.146;2023-10-08T13:34:16;33.60;99.90
15922;DHT22;8060;50.948;3.146;2023-10-08T13:36:45;34.00;99.90
15922;DHT22;8060;50.948;3.146;2023-10-08T13:39:16;34.00;99.90
15922;DHT22;8060;50.948;3.146;2023-10-08T13:41:46;34.20;99.90
15922;DHT22;8060;50.948;3.146;2023-10-08T13:44:15;34.30;99.90
15922;DHT22;8060;50.948;3.146;2023-10-08T13:46:45;34.20;99.90
15922;DHT22;8060;50.948;3.146;2023-10-08T13:49:16;33.80;99.90
15922;DHT22;8060;50.948;3.146;2023-10-08T13:51:47;33.80;99.90
15922;DHT22;8060;50.948;3.146;2023-10-08T13:54:23;34.00;99.90
15922;DHT22;8060;50.948;3.146;2023-10-08T13:56:55;34.00;99.90
15922;DHT22;8060;50.948;3.146;2023-10-08T13:59:25;33.90;99.90
15922;DHT22;8060;50.948;3.146;2023-10-08T14:01:53;33.60;99.90
15922;DHT22;8060;50.948;3.146;2023-10-08T14:04:23;33.60;99.90
15922;DHT22;8060;50.948;3.146;2023-10-08T14:06:59;33.60;99.90
15922;DHT22;8060;50.948;3.146;2023-10-08T14:09:29;33.70;99.90
15922;DHT22;8060;50.948;3.146;2023-10-08T14:12:03;33.60;99.90
15922;DHT22;8060;50.948;3.146;2023-10-08T14:14:33;33.70;99.90
15922;DHT22;8060;50.948;3.146;2023-10-08T14:17:02;33.90;99.90
15922;DHT22;8060;50.948;3.146;2023-10-08T14:19:35;34.00;99.90
15922;DHT22;8060;50.948;3.146;2023-10-08T14:22:14;34.20;99.90
15922;DHT22;8060;50.948;3.146;2023-10-08T14:24:43;34.20;99.90
15922;DHT22;8060;50.948;3.146;2023-10-08T14:27:13;34.20;99.90
15922;DHT22;8060;50.948;3.146;2023-10-08T14:29:43;34.40;99.90
15922;DHT22;8060;50.948;3.146;2023-10-08T14:32:13;34.50;99.90
15922;DHT22;8060;50.948;3.146;2023-10-08T14:34:43;34.50;99.90
15922;DHT22;8060;50.948;3.146;2023-10-08T14:37:29;34.80;99.80
15922;DHT22;8060;50.948;3.146;2023-10-08T14:40:15;34.80;99.90
15922;DHT22;8060;50.948;3.146;2023-10-08T14:43:01;34.90;98.60
15922;DHT22;8060;50.948;3.146;2023-10-08T14:45:33;34.80;98.00
15922;DHT22;8060;50.948;3.146;2023-10-08T14:48:03;34.60;98.30
15922;DHT22;8060;50.948;3.146;2023-10-08T14:50:39;34.20;97.80
15922;DHT22;8060;50.948;3.146;2023-10-08T14:53:10;33.90;98.10
15922;DHT22;8060;50.948;3.146;2023-10-08T14:55:38;33.90;98.40
15922;DHT22;8060;50.948;3.146;2023-10-08T14:58:07;34.00;98.40
15922;DHT22;8060;50.948;3.146;2023-10-08T15:00:37;33.90;98.80
15922;DHT22;8060;50.948;3.146;2023-10-08T15:03:06;33.80;98.80
15922;DHT22;8060;50.948;3.146;2023-10-08T15:05:35;34.00;98.50
15922;DHT22;8060;50.948;3.146;2023-10-08T15:08:05;33.80;98.60
15922;DHT22;8060;50.948;3.146;2023-10-08T15:10:38;33.70;99.10
15922;DHT22;8060;50.948;3.146;2023-10-08T15:13:07;33.50;98.80
15922;DHT22;8060;50.948;3.146;2023-10-08T15:15:35;33.10;99.00
15922;DHT22;8060;50.948;3.146;2023-10-08T15:18:07;33.10;99.70
15922;DHT22;8060;50.948;3.146;2023-10-08T15:20:39;33.00;99.80
15922;DHT22;8060;50.948;3.146;2023-10-08T15:23:08;32.90;99.80
15922;DHT22;8060;50.948;3.146;2023-10-08T15:25:40;32.50;99.90
15922;DHT22;8060;50.948;3.146;2023-10-08T15:28:09;32.10;99.90
15922;DHT22;8060;50.948;3.146;2023-10-08T15:30:37;31.60;99.90
15922;DHT22;8060;50.948;3.146;2023-10-08T15:33:06;31.20;99.90
15922;DHT22;8060;50.948;3.146;2023-10-08T15:35:34;30.60;99.90
15922;DHT22;8060;50.948;3.146;2023-10-08T15:38:03;30.30;99.90
15922;DHT22;8060;50.948;3.146;2023-10-08T15:40:31;29.90;99.90
15922;DHT22;8060;50.948;3.146;2023-10-08T15:48:13;28.80;99.90
15922;DHT22;8060;50.948;3.146;2023-10-08T15:50:41;28.70;99.90
15922;DHT22;8060;50.948;3.146;2023-10-08T15:53:09;28.50;99.90
15922;DHT22;8060;50.948;3.146;2023-10-08T15:55:37;28.40;99.90
15922;DHT22;8060;50.948;3.146;2023-10-08T15:58:06;28.20;99.90
15922;DHT22;8060;50.948;3.146;2023-10-08T16:00:34;28.10;99.90
15922;DHT22;8060;50.948;3.146;2023-10-08T16:03:03;28.00;99.90
15922;DHT22;8060;50.948;3.146;2023-10-08T16:05:34;27.90;99.90
15922;DHT22;8060;50.948;3.146;2023-10-08T16:08:02;27.70;99.90
15922;DHT22;8060;50.948;3.146;2023-10-08T16:10:30;27.50;99.90
15922;DHT22;8060;50.948;3.146;2023-10-08T16:12:58;27.50;99.90
15922;DHT22;8060;50.948;3.146;2023-10-08T16:15:27;27.40;99.90
15922;DHT22;8060;50.948;3.146;2023-10-08T16:17:56;27.30;99.90
15922;DHT22;8060;50.948;3.146;2023-10-08T16:20:25;27.30;99.90
15922;DHT22;8060;50.948;3.146;2023-10-08T16:22:54;27.20;99.90
15922;DHT22;8060;50.948;3.146;2023-10-08T16:25:22;27.10;99.90
15922;DHT22;8060;50.948;3.146;2023-10-08T16:27:51;27.00;99.90
15922;DHT22;8060;50.948;3.146;2023-10-08T16:30:22;26.90;99.90
15922;DHT22;8060;50.948;3.146;2023-10-08T16:32:51;26.90;99.90
15922;DHT22;8060;50.948;3.146;2023-10-08T16:35:20;26.80;99.90
15922;DHT22;8060;50.948;3.146;2023-10-08T16:37:48;26.80;99.90
15922;DHT22;8060;50.948;3.146;2023-10-08T16:40:17;26.70;99.90
15922;DHT22;8060;50.948;3.146;2023-10-08T16:42:47;26.60;99.90
15922;DHT22;8060;50.948;3.146;2023-10-08T16:45:15;26.50;99.90
15922;DHT22;8060;50.948;3.146;2023-10-08T16:47:45;26.40;99.90
15922;DHT22;8060;50.948;3.146;2023-10-08T16:50:13;26.30;99.90
15922;DHT22;8060;50.948;3.146;2023-10-08T16:52:44;26.20;99.90
15922;DHT22;8060;50.948;3.146;2023-10-08T16:55:12;26.10;99.90
15922;DHT22;8060;50.948;3.146;2023-10-08T16:57:42;26.10;99.90
15922;DHT22;8060;50.948;3.146;2023-10-08T17:00:12;25.80;99.90
15922;DHT22;8060;50.948;3.146;2023-10-08T17:02:40;25.80;99.90
15922;DHT22;8060;50.948;3.146;2023-10-08T17:05:09;25.60;99.90
15922;DHT22;8060;50.948;3.146;2023-10-08T17:07:38;25.40;99.90
15922;DHT22;8060;50.948;3.146;2023-10-08T17:10:07;25.30;99.90
15922;DHT22;8060;50.948;3.146;2023-10-08T17:12:35;25.30;99.90
15922;DHT22;8060;50.948;3.146;2023-10-08T17:15:06;25.20;99.90
15922;DHT22;8060;50.948;3.146;2023-10-08T17:17:37;25.10;99.90
15922;DHT22;8060;50.948;3.146;2023-10-08T17:20:06;25.10;99.90
15922;DHT22;8060;50.948;3.146;2023-10-08T17:22:36;25.00;99.90
15922;DHT22;8060;50.948;3.146;2023-10-08T17:25:05;24.90;99.90
15922;DHT22;8060;50.948;3.146;2023-10-08T17:27:34;24.70;99.90
15922;DHT22;8060;50.948;3.146;2023-10-08T17:30:03;24.60;99.90
15922;DHT22;8060;50.948;3.146;2023-10-08T17:32:34;24.60;99.90
15922;DHT22;8060;50.948;3.146;2023-10-08T17:35:04;24.60;99.90
15922;DHT22;8060;50.948;3.146;2023-10-08T17:37:33;24.50;99.90
15922;DHT22;8060;50.948;3.146;2023-10-08T17:40:05;24.40;99.90
15922;DHT22;8060;50.948;3.146;2023-10-08T17:42:34;24.30;99.90
15922;DHT22;8060;50.948;3.146;2023-10-08T17:45:03;24.30;99.90
15922;DHT22;8060;50.948;3.146;2023-10-08T17:47:34;24.20;99.90
15922;DHT22;8060;50.948;3.146;2023-10-08T17:50:05;24.10;99.90
15922;DHT22;8060;50.948;3.146;2023-10-08T17:52:34;24.10;99.90
15922;DHT22;8060;50.948;3.146;2023-10-08T17:55:02;24.00;99.90
15922;DHT22;8060;50.948;3.146;2023-10-08T17:57:33;24.00;99.90
15922;DHT22;8060;50.948;3.146;2023-10-08T18:00:02;23.80;99.90
15922;DHT22;8060;50.948;3.146;2023-10-08T18:02:39;23.80;99.90
15922;DHT22;8060;50.948;3.146;2023-10-08T18:05:08;23.70;99.90
15922;DHT22;8060;50.948;3.146;2023-10-08T18:07:43;23.70;99.90
15922;DHT22;8060;50.948;3.146;2023-10-08T18:10:13;23.60;99.90
15922;DHT22;8060;50.948;3.146;2023-10-08T18:12:44;23.40;99.90
15922;DHT22;8060;50.948;3.146;2023-10-08T18:15:12;23.40;99.90
15922;DHT22;8060;50.948;3.146;2023-10-08T18:17:44;23.30;99.90
15922;DHT22;8060;50.948;3.146;2023-10-08T18:20:12;23.30;99.90
15922;DHT22;8060;50.948;3.146;2023-10-08T18:22:47;23.30;99.90
15922;DHT22;8060;50.948;3.146;2023-10-08T18:25:18;23.10;99.90
15922;DHT22;8060;50.948;3.146;2023-10-08T18:27:46;23.00;99.90
15922;DHT22;8060;50.948;3.146;2023-10-08T18:30:15;23.00;99.90
15922;DHT22;8060;50.948;3.146;2023-10-08T18:32:44;22.90;99.90
15922;DHT22;8060;50.948;3.146;2023-10-08T18:35:12;22.80;99.90
15922;DHT22;8060;50.948;3.146;2023-10-08T18:37:41;22.70;99.90
15922;DHT22;8060;50.948;3.146;2023-10-08T18:40:09;22.60;99.90
15922;DHT22;8060;50.948;3.146;2023-10-08T18:42:40;22.50;99.90
15922;DHT22;8060;50.948;3.146;2023-10-08T18:45:10;22.50;99.90
15922;DHT22;8060;50.948;3.146;2023-10-08T18:47:41;22.40;99.90
15922;DHT22;8060;50.948;3.146;2023-10-08T18:50:11;22.40;99.90
15922;DHT22;8060;50.948;3.146;2023-10-08T18:52:42;22.30;99.90
15922;DHT22;8060;50.948;3.146;2023-10-08T18:55:12;22.30;99.90
15922;DHT22;8060;50.948;3.146;2023-10-08T18:57:41;22.30;99.90
15922;DHT22;8060;50.948;3.146;2023-10-08T19:00:10;22.30;99.90
15922;DHT22;8060;50.948;3.146;2023-10-08T19:02:40;22.30;99.90
15922;DHT22;8060;50.948;3.146;2023-10-08T19:05:11;22.20;99.90
15922;DHT22;8060;50.948;3.146;2023-10-08T19:07:43;22.10;99.90
15922;DHT22;8060;50.948;3.146;2023-10-08T19:10:11;22.10;99.90
15922;DHT22;8060;50.948;3.146;2023-10-08T19:12:43;22.00;99.90
15922;DHT22;8060;50.948;3.146;2023-10-08T19:15:12;21.80;99.90
15922;DHT22;8060;50.948;3.146;2023-10-08T19:17:42;21.90;99.90
15922;DHT22;8060;50.948;3.146;2023-10-08T19:20:13;21.80;99.90
15922;DHT22;8060;50.948;3.146;2023-10-08T19:22:43;21.80;99.90
15922;DHT22;8060;50.948;3.146;2023-10-08T19:25:13;21.70;99.90
15922;DHT22;8060;50.948;3.146;2023-10-08T19:27:44;21.60;99.90
15922;DHT22;8060;50.948;3.146;2023-10-08T19:30:15;21.50;99.90
15922;DHT22;8060;50.948;3.146;2023-10-08T19:32:44;21.40;99.90
15922;DHT22;8060;50.948;3.146;2023-10-08T19:35:15;21.40;99.90
15922;DHT22;8060;50.948;3.146;2023-10-08T19:37:48;21.30;99.90
15922;DHT22;8060;50.948;3.146;2023-10-08T19:40:18;21.20;99.90
15922;DHT22;8060;50.948;3.146;2023-10-08T19:42:48;21.10;99.90
15922;DHT22;8060;50.948;3.146;2023-10-08T19:45:17;21.00;99.90
15922;DHT22;8060;50.948;3.146;2023-10-08T19:47:47;20.90;99.90
15922;DHT22;8060;50.948;3.146;2023-10-08T19:50:19;20.80;99.90
15922;DHT22;8060;50.948;3.146;2023-10-08T19:52:50;20.70;99.90
15922;DHT22;8060;50.948;3.146;2023-10-08T19:55:18;20.60;99.90
15922;DHT22;8060;50.948;3.146;2023-10-08T19:57:46;20.50;99.90
15922;DHT22;8060;50.948;3.146;2023-10-08T20:00:15;20.40;99.90
15922;DHT22;8060;50.948;3.146;2023-10-08T20:02:50;20.30;99.90
15922;DHT22;8060;50.948;3.146;2023-10-08T20:05:21;20.20;99.90
15922;DHT22;8060;50.948;3.146;2023-10-08T20:07:49;20.20;99.90
15922;DHT22;8060;50.948;3.146;2023-10-08T20:10:19;20.10;99.90
15922;DHT22;8060;50.948;3.146;2023-10-08T20:12:49;20.00;99.90
15922;DHT22;8060;50.948;3.146;2023-10-08T20:15:20;19.90;99.90
15922;DHT22;8060;50.948;3.146;2023-10-08T20:17:51;19.90;99.90
15922;DHT22;8060;50.948;3.146;2023-10-08T20:20:21;20.00;99.90
15922;DHT22;8060;50.948;3.146;2023-10-08T20:22:52;20.10;99.90
15922;DHT22;8060;50.948;3.146;2023-10-08T20:25:21;20.10;99.90
15922;DHT22;8060;50.948;3.146;2023-10-08T20:27:52;20.10;99.90
15922;DHT22;8060;50.948;3.146;2023-10-08T20:30:20;20.20;99.90
15922;DHT22;8060;50.948;3.146;2023-10-08T20:32:50;20.20;99.90
15922;DHT22;8060;50.948;3.146;2023-10-08T20:35:21;20.20;99.90
15922;DHT22;8060;50.948;3.146;2023-10-08T20:37:52;20.20;99.90
15922;DHT22;8060;50.948;3.146;2023-10-08T20:40:21;20.30;99.90
15922;DHT22;8060;50.948;3.146;2023-10-08T20:42:52;20.30;99.90
15922;DHT22;8060;50.948;3.146;2023-10-08T20:45:22;20.30;99.90
15922;DHT22;8060;50.948;3.146;2023-10-08T20:47:54;20.30;99.90
15922;DHT22;8060;50.948;3.146;2023-10-08T20:50:26;20.30;99.90
15922;DHT22;8060;50.948;3.146;2023-10-08T20:53:00;20.40;99.90
15922;DHT22;8060;50.948;3.146;2023-10-08T20:55:33;20.30;99.90
15922;DHT22;8060;50.948;3.146;2023-10-08T20:58:02;20.30;99.90
15922;DHT22;8060;50.948;3.146;2023-10-08T21:00:31;20.30;99.90
15922;DHT22;8060;50.948;3.146;2023-10-08T21:03:02;20.20;99.90
15922;DHT22;8060;50.948;3.146;2023-10-08T21:05:34;20.20;99.90
15922;DHT22;8060;50.948;3.146;2023-10-08T21:08:04;20.20;99.90
15922;DHT22;8060;50.948;3.146;2023-10-08T21:10:33;20.10;99.90
15922;DHT22;8060;50.948;3.146;2023-10-08T21:13:21;20.10;99.90
15922;DHT22;8060;50.948;3.146;2023-10-08T21:15:51;20.10;99.90
15922;DHT22;8060;50.948;3.146;2023-10-08T21:18:21;20.00;99.90
15922;DHT22;8060;50.948;3.146;2023-10-08T21:20:52;20.00;99.90
15922;DHT22;8060;50.948;3.146;2023-10-08T21:23:20;20.00;99.90
15922;DHT22;8060;50.948;3.146;2023-10-08T21:25:48;20.00;99.90
15922;DHT22;8060;50.948;3.146;2023-10-08T21:28:16;20.00;99.90
15922;DHT22;8060;50.948;3.146;2023-10-08T21:30:44;19.90;99.90
15922;DHT22;8060;50.948;3.146;2023-10-08T21:33:12;19.90;99.90
15922;DHT22;8060;50.948;3.146;2023-10-08T21:35:42;20.00;99.90
15922;DHT22;8060;50.948;3.146;2023-10-08T21:38:12;20.00;99.90
15922;DHT22;8060;50.948;3.146;2023-10-08T21:40:40;20.00;99.90
15922;DHT22;8060;50.948;3.146;2023-10-08T21:43:09;19.90;99.90
15922;DHT22;8060;50.948;3.146;2023-10-08T21:45:37;19.90;99.90
15922;DHT22;8060;50.948;3.146;2023-10-08T21:48:05;19.90;99.90
15922;DHT22;8060;50.948;3.146;2023-10-08T21:50:34;19.80;99.90
15922;DHT22;8060;50.948;3.146;2023-10-08T21:53:03;19.80;99.90
15922;DHT22;8060;50.948;3.146;2023-10-08T21:55:35;19.70;99.90
15922;DHT22;8060;50.948;3.146;2023-10-08T21:58:03;19.70;99.90
15922;DHT22;8060;50.948;3.146;2023-10-08T22:00:31;19.70;99.90
15922;DHT22;8060;50.948;3.146;2023-10-08T22:03:01;19.60;99.90
15922;DHT22;8060;50.948;3.146;2023-10-08T22:05:34;19.60;99.90
15922;DHT22;8060;50.948;3.146;2023-10-08T22:08:02;19.50;99.90
15922;DHT22;8060;50.948;3.146;2023-10-08T22:10:35;19.50;99.90
15922;DHT22;8060;50.948;3.146;2023-10-08T22:13:04;19.40;99.90
15922;DHT22;8060;50.948;3.146;2023-10-08T22:15:36;19.50;99.90
15922;DHT22;8060;50.948;3.146;2023-10-08T22:18:13;19.50;99.90
15922;DHT22;8060;50.948;3.146;2023-10-08T22:20:55;19.40;99.90
15922;DHT22;8060;50.948;3.146;2023-10-08T22:23:34;19.40;99.90
15922;DHT22;8060;50.948;3.146;2023-10-08T22:26:08;19.30;99.90
15922;DHT22;8060;50.948;3.146;2023-10-08T22:28:38;19.30;99.90
15922;DHT22;8060;50.948;3.146;2023-10-08T22:31:10;19.20;99.90
15922;DHT22;8060;50.948;3.146;2023-10-08T22:33:40;19.20;99.90
15922;DHT22;8060;50.948;3.146;2023-10-08T22:36:13;19.20;99.90
15922;DHT22;8060;50.948;3.146;2023-10-08T22:38:56;19.20;99.90
15922;DHT22;8060;50.948;3.146;2023-10-08T22:41:25;19.10;99.90